sensor_id;sensor_type;location;lat;lon;timestamp;pressure;altitude;pressure_sealevel;temperature;humidity
32452;BME280;45528;52.102;5.242;2023-04-25T00:00:48;100689.0;;;11.54;63.99
32452;BME280;45528;52.102;5.242;2023-04-25T00:02:24;100688.0;;;11.61;64.0
32452;BME280;45528;52.102;5.242;2023-04-25T00:04:00;100697.0;;;11.68;64.17
32452;BME280;45528;52.102;5.242;2023-04-25T00:07:13;100706.0;;;11.85;63.79
32452;BME280;45528;52.102;5.242;2023-04-25T00:08:49;100708.0;;;11.91;63.51
32452;BME280;45528;52.102;5.242;2023-04-25T00:10:25;100712.0;;;11.93;63.13
32452;BME280;45528;52.102;5.242;2023-04-25T00:12:02;100714.0;;;11.15;65.12
32452;BME280;45528;52.102;5.242;2023-04-25T00:15:14;100713.0;;;11.48;64.53
32452;BME280;45528;52.102;5.242;2023-04-25T00:16:50;100712.0;;;11.42;64.95
32452;BME280;45528;52.102;5.242;2023-04-25T00:18:26;100712.0;;;11.69;64.49
32452;BME280;45528;52.102;5.242;2023-04-25T00:21:38;100711.0;;;11.8;64.17
32452;BME280;45528;52.102;5.242;2023-04-25T00:23:16;100708.0;;;11.87;63.98
32452;BME280;45528;52.102;5.242;2023-04-25T00:24:52;100703.0;;;11.98;63.46
32452;BME280;45528;52.102;5.242;2023-04-25T00:28:05;100705.0;;;11.95;63.23
32452;BME280;45528;52.102;5.242;2023-04-25T00:29:41;100705.0;;;11.66;63.26
32452;BME280;45528;52.102;5.242;2023-04-25T00:31:17;100707.0;;;12.16;62.75
32452;BME280;45528;52.102;5.242;2023-04-25T00:34:29;100712.0;;;12.22;62.45
32452;BME280;45528;52.102;5.242;2023-04-25T00:36:07;100710.0;;;12.23;62.06
32452;BME280;45528;52.102;5.242;2023-04-25T00:37:42;100709.0;;;12.13;61.96
32452;BME280;45528;52.102;5.242;2023-04-25T00:39:19;100712.0;;;12.17;62.29
32452;BME280;45528;52.102;5.242;2023-04-25T00:42:32;100713.0;;;12.19;61.96
32452;BME280;45528;52.102;5.242;2023-04-25T00:44:08;100718.0;;;12.16;62.05
32452;BME280;45528;52.102;5.242;2023-04-25T00:45:46;100718.0;;;12.05;62.37
32452;BME280;45528;52.102;5.242;2023-04-25T00:49:00;100715.0;;;12.13;62.03
32452;BME280;45528;52.102;5.242;2023-04-25T00:50:36;100715.0;;;12.03;62.27
32452;BME280;45528;52.102;5.242;2023-04-25T00:52:14;100717.0;;;12.01;62.16
32452;BME280;45528;52.102;5.242;2023-04-25T00:55:27;100715.0;;;11.92;62.54
32452;BME280;45528;52.102;5.242;2023-04-25T00:57:03;100713.0;;;11.89;62.37
32452;BME280;45528;52.102;5.242;2023-04-25T00:58:40;100710.0;;;11.8;62.58
32452;BME280;45528;52.102;5.242;2023-04-25T01:00:17;100712.0;;;11.75;62.59
32452;BME280;45528;52.102;5.242;2023-04-25T01:03:32;100706.0;;;11.66;62.85
32452;BME280;45528;52.102;5.242;2023-04-25T01:05:09;100709.0;;;11.62;63.01
32452;BME280;45528;52.102;5.242;2023-04-25T01:06:45;100708.0;;;11.59;62.89
32452;BME280;45528;52.102;5.242;2023-04-25T01:09:59;100706.0;;;11.53;62.74
32452;BME280;45528;52.102;5.242;2023-04-25T01:11:35;100714.0;;;11.51;63.01
32452;BME280;45528;52.102;5.242;2023-04-25T01:13:11;100719.0;;;11.5;62.87
32452;BME280;45528;52.102;5.242;2023-04-25T01:14:47;100717.0;;;11.36;63.22
32452;BME280;45528;52.102;5.242;2023-04-25T01:18:00;100716.0;;;11.37;62.76
32452;BME280;45528;52.102;5.242;2023-04-25T01:19:36;100719.0;;;11.37;62.65
32452;BME280;45528;52.102;5.242;2023-04-25T01:21:13;100723.0;;;11.41;62.55
32452;BME280;45528;52.102;5.242;2023-04-25T01:24:26;100718.0;;;11.26;63.33
32452;BME280;45528;52.102;5.242;2023-04-25T01:26:03;100720.0;;;11.13;63.49
32452;BME280;45528;52.102;5.242;2023-04-25T01:27:42;100724.0;;;11.12;63.23
32452;BME280;45528;52.102;5.242;2023-04-25T01:30:56;100723.0;;;11.1;63.31
32452;BME280;45528;52.102;5.242;2023-04-25T01:32:33;100730.0;;;11.11;63.05
32452;BME280;45528;52.102;5.242;2023-04-25T01:34:09;100730.0;;;11.06;63.2
32452;BME280;45528;52.102;5.242;2023-04-25T01:35:45;100734.0;;;11.01;63.34
32452;BME280;45528;52.102;5.242;2023-04-25T01:38:58;100736.0;;;10.92;63.92
32452;BME280;45528;52.102;5.242;2023-04-25T01:40:38;100734.0;;;10.89;63.63
32452;BME280;45528;52.102;5.242;2023-04-25T01:42:16;100737.0;;;10.87;63.59
32452;BME280;45528;52.102;5.242;2023-04-25T01:45:30;100737.0;;;10.83;63.7
32452;BME280;45528;52.102;5.242;2023-04-25T01:47:06;100736.0;;;10.68;64.05
32452;BME280;45528;52.102;5.242;2023-04-25T01:48:42;100737.0;;;10.61;64.41
32452;BME280;45528;52.102;5.242;2023-04-25T01:51:55;100740.0;;;10.56;64.41
32452;BME280;45528;52.102;5.242;2023-04-25T01:53:31;100740.0;;;10.58;64.45
32452;BME280;45528;52.102;5.242;2023-04-25T01:55:07;100742.0;;;10.49;64.6
32452;BME280;45528;52.102;5.242;2023-04-25T01:56:50;100743.0;;;10.43;64.55
32452;BME280;45528;52.102;5.242;2023-04-25T02:00:04;100744.0;;;10.42;64.84
32452;BME280;45528;52.102;5.242;2023-04-25T02:01:42;100750.0;;;10.46;64.74
32452;BME280;45528;52.102;5.242;2023-04-25T02:03:18;100756.0;;;10.44;64.83
32452;BME280;45528;52.102;5.242;2023-04-25T02:06:31;100756.0;;;10.42;64.91
32452;BME280;45528;52.102;5.242;2023-04-25T02:08:08;100755.0;;;10.36;64.95
32452;BME280;45528;52.102;5.242;2023-04-25T02:09:45;100756.0;;;10.33;65.16
32452;BME280;45528;52.102;5.242;2023-04-25T02:11:21;100762.0;;;10.34;65.24
32452;BME280;45528;52.102;5.242;2023-04-25T02:14:33;100762.0;;;10.39;65.31
32452;BME280;45528;52.102;5.242;2023-04-25T02:16:09;100765.0;;;10.43;65.3
32452;BME280;45528;52.102;5.242;2023-04-25T02:17:45;100759.0;;;10.5;65.06
32452;BME280;45528;52.102;5.242;2023-04-25T02:20:58;100757.0;;;10.55;64.69
32452;BME280;45528;52.102;5.242;2023-04-25T02:22:35;100759.0;;;10.62;64.75
32452;BME280;45528;52.102;5.242;2023-04-25T02:24:11;100758.0;;;10.7;64.47
32452;BME280;45528;52.102;5.242;2023-04-25T02:27:24;100761.0;;;10.67;64.74
32452;BME280;45528;52.102;5.242;2023-04-25T02:29:00;100761.0;;;10.65;64.72
32452;BME280;45528;52.102;5.242;2023-04-25T02:30:36;100760.0;;;10.74;64.39
32452;BME280;45528;52.102;5.242;2023-04-25T02:32:13;100763.0;;;10.67;64.36
32452;BME280;45528;52.102;5.242;2023-04-25T02:35:26;100758.0;;;10.71;64.37
32452;BME280;45528;52.102;5.242;2023-04-25T02:37:02;100762.0;;;10.76;64.66
32452;BME280;45528;52.102;5.242;2023-04-25T02:38:39;100762.0;;;10.79;64.37
32452;BME280;45528;52.102;5.242;2023-04-25T02:41:52;100762.0;;;10.77;64.33
32452;BME280;45528;52.102;5.242;2023-04-25T02:43:28;100760.0;;;10.77;64.2
32452;BME280;45528;52.102;5.242;2023-04-25T02:45:04;100758.0;;;10.72;64.59
32452;BME280;45528;52.102;5.242;2023-04-25T02:48:17;100757.0;;;10.68;64.6
32452;BME280;45528;52.102;5.242;2023-04-25T02:49:53;100760.0;;;10.68;64.61
32452;BME280;45528;52.102;5.242;2023-04-25T02:51:29;100759.0;;;10.65;64.73
32452;BME280;45528;52.102;5.242;2023-04-25T02:54:41;100762.0;;;10.66;65.05
32452;BME280;45528;52.102;5.242;2023-04-25T02:56:17;100762.0;;;10.69;64.55
32452;BME280;45528;52.102;5.242;2023-04-25T02:57:54;100762.0;;;10.81;64.42
32452;BME280;45528;52.102;5.242;2023-04-25T02:59:30;100763.0;;;10.86;64.02
32452;BME280;45528;52.102;5.242;2023-04-25T03:02:42;100766.0;;;10.84;63.96
32452;BME280;45528;52.102;5.242;2023-04-25T03:04:18;100768.0;;;10.8;64.23
32452;BME280;45528;52.102;5.242;2023-04-25T03:05:54;100772.0;;;10.81;64.14
32452;BME280;45528;52.102;5.242;2023-04-25T03:09:06;100769.0;;;10.92;63.87
32452;BME280;45528;52.102;5.242;2023-04-25T03:10:43;100780.0;;;10.91;63.72
32452;BME280;45528;52.102;5.242;2023-04-25T03:12:20;100774.0;;;10.91;63.95
32452;BME280;45528;52.102;5.242;2023-04-25T03:15:32;100774.0;;;10.88;64.1
32452;BME280;45528;52.102;5.242;2023-04-25T03:17:08;100774.0;;;10.96;63.64
32452;BME280;45528;52.102;5.242;2023-04-25T03:18:44;100778.0;;;10.96;63.39
32452;BME280;45528;52.102;5.242;2023-04-25T03:20:20;100778.0;;;10.95;63.77
32452;BME280;45528;52.102;5.242;2023-04-25T03:23:32;100783.0;;;11.01;63.61
32452;BME280;45528;52.102;5.242;2023-04-25T03:25:09;100790.0;;;10.96;63.7
32452;BME280;45528;52.102;5.242;2023-04-25T03:26:45;100791.0;;;11.19;62.84
32452;BME280;45528;52.102;5.242;2023-04-25T03:29:58;100790.0;;;11.16;62.99
32452;BME280;45528;52.102;5.242;2023-04-25T03:31:34;100796.0;;;11.19;62.76
32452;BME280;45528;52.102;5.242;2023-04-25T03:33:10;100796.0;;;10.33;64.72
32452;BME280;45528;52.102;5.242;2023-04-25T03:36:23;100796.0;;;10.8;63.42
32452;BME280;45528;52.102;5.242;2023-04-25T03:37:59;100788.0;;;10.61;63.7
32452;BME280;45528;52.102;5.242;2023-04-25T03:39:35;100790.0;;;10.95;63.15
32452;BME280;45528;52.102;5.242;2023-04-25T03:42:48;100786.0;;;11.12;62.65
32452;BME280;45528;52.102;5.242;2023-04-25T03:44:24;100784.0;;;11.09;61.99
32452;BME280;45528;52.102;5.242;2023-04-25T03:46:01;100789.0;;;11.12;61.54
32452;BME280;45528;52.102;5.242;2023-04-25T03:47:36;100785.0;;;11.35;60.79
32452;BME280;45528;52.102;5.242;2023-04-25T03:50:49;100789.0;;;11.4;60.82
32452;BME280;45528;52.102;5.242;2023-04-25T03:52:25;100792.0;;;11.43;61.25
32452;BME280;45528;52.102;5.242;2023-04-25T03:54:01;100790.0;;;11.35;61.8
32452;BME280;45528;52.102;5.242;2023-04-25T03:57:13;100789.0;;;11.3;61.86
32452;BME280;45528;52.102;5.242;2023-04-25T03:58:49;100792.0;;;11.26;62.55
32452;BME280;45528;52.102;5.242;2023-04-25T04:00:26;100791.0;;;11.19;62.71
32452;BME280;45528;52.102;5.242;2023-04-25T04:03:38;100791.0;;;11.16;62.84
32452;BME280;45528;52.102;5.242;2023-04-25T04:05:14;100798.0;;;11.13;63.13
32452;BME280;45528;52.102;5.242;2023-04-25T04:06:50;100805.0;;;11.12;62.66
32452;BME280;45528;52.102;5.242;2023-04-25T04:10:02;100808.0;;;11.12;62.72
32452;BME280;45528;52.102;5.242;2023-04-25T04:11:38;100810.0;;;11.12;62.42
32452;BME280;45528;52.102;5.242;2023-04-25T04:13:14;100813.0;;;11.2;61.99
32452;BME280;45528;52.102;5.242;2023-04-25T04:14:50;100813.0;;;11.32;61.29
32452;BME280;45528;52.102;5.242;2023-04-25T04:18:03;100814.0;;;11.24;61.2
32452;BME280;45528;52.102;5.242;2023-04-25T04:19:39;100820.0;;;11.22;60.96
32452;BME280;45528;52.102;5.242;2023-04-25T04:21:15;100822.0;;;11.12;60.38
32452;BME280;45528;52.102;5.242;2023-04-25T04:24:27;100820.0;;;11.05;61.14
32452;BME280;45528;52.102;5.242;2023-04-25T04:26:03;100823.0;;;10.96;61.57
32452;BME280;45528;52.102;5.242;2023-04-25T04:27:39;100828.0;;;10.9;61.05
32452;BME280;45528;52.102;5.242;2023-04-25T04:30:53;100827.0;;;10.94;61.56
32452;BME280;45528;52.102;5.242;2023-04-25T04:32:29;100830.0;;;10.93;61.31
32452;BME280;45528;52.102;5.242;2023-04-25T04:34:05;100830.0;;;11.11;61.14
32452;BME280;45528;52.102;5.242;2023-04-25T04:35:41;100832.0;;;11.12;61.67
32452;BME280;45528;52.102;5.242;2023-04-25T04:38:53;100833.0;;;11.08;61.21
32452;BME280;45528;52.102;5.242;2023-04-25T04:40:30;100836.0;;;10.98;61.57
32452;BME280;45528;52.102;5.242;2023-04-25T04:42:06;100836.0;;;11.05;61.35
32452;BME280;45528;52.102;5.242;2023-04-25T04:45:19;100834.0;;;11.05;61.04
32452;BME280;45528;52.102;5.242;2023-04-25T04:46:55;100842.0;;;11.17;60.79
32452;BME280;45528;52.102;5.242;2023-04-25T04:48:31;100846.0;;;11.18;60.99
32452;BME280;45528;52.102;5.242;2023-04-25T04:51:46;100845.0;;;11.27;60.76
32452;BME280;45528;52.102;5.242;2023-04-25T04:53:22;100845.0;;;11.24;60.51
32452;BME280;45528;52.102;5.242;2023-04-25T04:54:58;100848.0;;;11.39;59.84
32452;BME280;45528;52.102;5.242;2023-04-25T04:56:35;100852.0;;;11.36;60.39
32452;BME280;45528;52.102;5.242;2023-04-25T04:59:47;100852.0;;;11.32;60.16
32452;BME280;45528;52.102;5.242;2023-04-25T05:01:24;100861.0;;;11.48;60.0
32452;BME280;45528;52.102;5.242;2023-04-25T05:03:00;100860.0;;;11.5;60.05
32452;BME280;45528;52.102;5.242;2023-04-25T05:06:12;100860.0;;;11.45;60.17
32452;BME280;45528;52.102;5.242;2023-04-25T05:07:49;100868.0;;;11.38;60.71
32452;BME280;45528;52.102;5.242;2023-04-25T05:09:26;100867.0;;;11.29;60.5
32452;BME280;45528;52.102;5.242;2023-04-25T05:12:38;100869.0;;;11.41;59.89
32452;BME280;45528;52.102;5.242;2023-04-25T05:14:14;100871.0;;;11.45;59.37
32452;BME280;45528;52.102;5.242;2023-04-25T05:15:50;100874.0;;;11.41;60.07
32452;BME280;45528;52.102;5.242;2023-04-25T05:19:03;100872.0;;;11.53;58.76
32452;BME280;45528;52.102;5.242;2023-04-25T05:20:39;100872.0;;;11.39;59.02
32452;BME280;45528;52.102;5.242;2023-04-25T05:22:15;100873.0;;;10.91;60.12
32452;BME280;45528;52.102;5.242;2023-04-25T05:23:51;100875.0;;;11.54;58.53
32452;BME280;45528;52.102;5.242;2023-04-25T05:27:03;100880.0;;;11.74;58.21
32452;BME280;45528;52.102;5.242;2023-04-25T05:28:40;100885.0;;;11.73;58.97
32452;BME280;45528;52.102;5.242;2023-04-25T05:30:15;100888.0;;;11.82;58.13
32452;BME280;45528;52.102;5.242;2023-04-25T05:33:28;100890.0;;;11.87;57.67
32452;BME280;45528;52.102;5.242;2023-04-25T05:35:05;100895.0;;;11.82;58.54
32452;BME280;45528;52.102;5.242;2023-04-25T05:36:41;100897.0;;;11.76;57.78
32452;BME280;45528;52.102;5.242;2023-04-25T05:39:53;100890.0;;;11.52;58.96
32452;BME280;45528;52.102;5.242;2023-04-25T05:41:29;100892.0;;;11.89;57.35
32452;BME280;45528;52.102;5.242;2023-04-25T05:43:06;100892.0;;;11.87;57.53
32452;BME280;45528;52.102;5.242;2023-04-25T05:44:42;100897.0;;;12.11;56.8
32452;BME280;45528;52.102;5.242;2023-04-25T05:47:54;100903.0;;;11.95;57.19
32452;BME280;45528;52.102;5.242;2023-04-25T05:49:30;100906.0;;;12.07;56.91
32452;BME280;45528;52.102;5.242;2023-04-25T05:51:06;100906.0;;;12.14;56.64
32452;BME280;45528;52.102;5.242;2023-04-25T05:54:20;100910.0;;;12.19;55.98
32452;BME280;45528;52.102;5.242;2023-04-25T05:55:55;100910.0;;;12.23;56.49
32452;BME280;45528;52.102;5.242;2023-04-25T05:57:31;100912.0;;;12.2;56.23
32452;BME280;45528;52.102;5.242;2023-04-25T06:00:43;100914.0;;;12.24;55.67
32452;BME280;45528;52.102;5.242;2023-04-25T06:02:20;100914.0;;;12.31;56.42
32452;BME280;45528;52.102;5.242;2023-04-25T06:03:57;100917.0;;;12.36;56.78
32452;BME280;45528;52.102;5.242;2023-04-25T06:07:09;100918.0;;;12.35;55.81
32452;BME280;45528;52.102;5.242;2023-04-25T06:08:45;100930.0;;;12.44;56.32
32452;BME280;45528;52.102;5.242;2023-04-25T06:10:21;100926.0;;;12.38;55.92
32452;BME280;45528;52.102;5.242;2023-04-25T06:11:57;100928.0;;;12.68;55.82
32452;BME280;45528;52.102;5.242;2023-04-25T06:15:10;100933.0;;;12.71;55.02
32452;BME280;45528;52.102;5.242;2023-04-25T06:16:46;100934.0;;;12.73;54.79
32452;BME280;45528;52.102;5.242;2023-04-25T06:18:22;100938.0;;;12.85;54.96
32452;BME280;45528;52.102;5.242;2023-04-25T06:21:34;100933.0;;;12.94;54.31
32452;BME280;45528;52.102;5.242;2023-04-25T06:23:11;100940.0;;;12.95;54.89
32452;BME280;45528;52.102;5.242;2023-04-25T06:24:47;100943.0;;;13.02;54.4
32452;BME280;45528;52.102;5.242;2023-04-25T06:28:00;100947.0;;;13.23;54.56
32452;BME280;45528;52.102;5.242;2023-04-25T06:29:36;100944.0;;;13.24;54.86
32452;BME280;45528;52.102;5.242;2023-04-25T06:31:12;100943.0;;;13.31;54.5
32452;BME280;45528;52.102;5.242;2023-04-25T06:32:48;100941.0;;;13.53;54.32
32452;BME280;45528;52.102;5.242;2023-04-25T06:36:00;100947.0;;;13.06;53.13
32452;BME280;45528;52.102;5.242;2023-04-25T06:37:36;100946.0;;;13.23;52.24
32452;BME280;45528;52.102;5.242;2023-04-25T06:39:13;100950.0;;;13.25;53.07
32452;BME280;45528;52.102;5.242;2023-04-25T06:42:25;100955.0;;;13.23;53.03
32452;BME280;45528;52.102;5.242;2023-04-25T06:44:01;100955.0;;;12.93;52.21
32452;BME280;45528;52.102;5.242;2023-04-25T06:45:37;100958.0;;;12.85;52.84
32452;BME280;45528;52.102;5.242;2023-04-25T06:48:50;100961.0;;;13.09;52.99
32452;BME280;45528;52.102;5.242;2023-04-25T06:50:26;100964.0;;;13.22;53.42
32452;BME280;45528;52.102;5.242;2023-04-25T06:52:03;100963.0;;;13.45;52.52
32452;BME280;45528;52.102;5.242;2023-04-25T06:55:16;100966.0;;;13.42;52.75
32452;BME280;45528;52.102;5.242;2023-04-25T06:56:52;100973.0;;;13.61;51.27
32452;BME280;45528;52.102;5.242;2023-04-25T06:58:28;100974.0;;;13.46;52.19
32452;BME280;45528;52.102;5.242;2023-04-25T07:00:05;100973.0;;;13.6;52.8
32452;BME280;45528;52.102;5.242;2023-04-25T07:03:19;100974.0;;;14.03;51.07
32452;BME280;45528;52.102;5.242;2023-04-25T07:04:56;100978.0;;;14.12;50.7
32452;BME280;45528;52.102;5.242;2023-04-25T07:06:33;100980.0;;;14.04;50.31
32452;BME280;45528;52.102;5.242;2023-04-25T07:09:45;100981.0;;;14.35;49.47
32452;BME280;45528;52.102;5.242;2023-04-25T07:11:21;100982.0;;;14.4;51.46
32452;BME280;45528;52.102;5.242;2023-04-25T07:12:57;100987.0;;;14.64;49.55
32452;BME280;45528;52.102;5.242;2023-04-25T07:16:10;100991.0;;;14.51;49.93
32452;BME280;45528;52.102;5.242;2023-04-25T07:17:46;100990.0;;;14.41;49.42
32452;BME280;45528;52.102;5.242;2023-04-25T07:19:22;100990.0;;;14.14;48.39
32452;BME280;45528;52.102;5.242;2023-04-25T07:20:58;100993.0;;;14.54;48.99
32452;BME280;45528;52.102;5.242;2023-04-25T07:24:10;100996.0;;;14.52;48.18
32452;BME280;45528;52.102;5.242;2023-04-25T07:25:47;101017.0;;;14.4;47.6
32452;BME280;45528;52.102;5.242;2023-04-25T07:27:22;100996.0;;;13.7;48.29
32452;BME280;45528;52.102;5.242;2023-04-25T07:30:35;100992.0;;;13.95;49.07
32452;BME280;45528;52.102;5.242;2023-04-25T07:32:11;100999.0;;;14.42;48.34
32452;BME280;45528;52.102;5.242;2023-04-25T07:33:47;100997.0;;;13.95;47.58
32452;BME280;45528;52.102;5.242;2023-04-25T07:36:59;101007.0;;;13.85;47.77
32452;BME280;45528;52.102;5.242;2023-04-25T07:38:35;101008.0;;;13.58;48.79
32452;BME280;45528;52.102;5.242;2023-04-25T07:40:12;101005.0;;;13.93;47.97
32452;BME280;45528;52.102;5.242;2023-04-25T07:43:25;101007.0;;;14.0;47.95
32452;BME280;45528;52.102;5.242;2023-04-25T07:45:01;101009.0;;;13.61;48.52
32452;BME280;45528;52.102;5.242;2023-04-25T07:46:37;101012.0;;;13.63;47.75
32452;BME280;45528;52.102;5.242;2023-04-25T07:48:16;101016.0;;;13.93;47.41
32452;BME280;45528;52.102;5.242;2023-04-25T07:51:29;101023.0;;;13.85;46.6
32452;BME280;45528;52.102;5.242;2023-04-25T07:53:05;101024.0;;;14.23;46.23
32452;BME280;45528;52.102;5.242;2023-04-25T07:54:42;101030.0;;;14.25;45.42
32452;BME280;45528;52.102;5.242;2023-04-25T07:57:54;101030.0;;;14.12;46.48
32452;BME280;45528;52.102;5.242;2023-04-25T07:59:30;101027.0;;;14.06;46.63
32452;BME280;45528;52.102;5.242;2023-04-25T08:01:06;101027.0;;;13.9;45.95
32452;BME280;45528;52.102;5.242;2023-04-25T08:04:18;101034.0;;;14.32;45.55
32452;BME280;45528;52.102;5.242;2023-04-25T08:05:54;101035.0;;;14.34;45.86
32452;BME280;45528;52.102;5.242;2023-04-25T08:07:31;101036.0;;;14.29;46.21
32452;BME280;45528;52.102;5.242;2023-04-25T08:09:07;101045.0;;;14.32;45.32
32452;BME280;45528;52.102;5.242;2023-04-25T08:12:19;101050.0;;;13.94;45.27
32452;BME280;45528;52.102;5.242;2023-04-25T08:13:55;101048.0;;;14.27;46.3
32452;BME280;45528;52.102;5.242;2023-04-25T08:15:31;101055.0;;;14.48;44.92
32452;BME280;45528;52.102;5.242;2023-04-25T08:18:45;101059.0;;;15.02;44.65
32452;BME280;45528;52.102;5.242;2023-04-25T08:20:21;101059.0;;;15.36;43.28
32452;BME280;45528;52.102;5.242;2023-04-25T08:21:57;101056.0;;;15.46;43.58
32452;BME280;45528;52.102;5.242;2023-04-25T08:25:09;101055.0;;;15.88;43.65
32452;BME280;45528;52.102;5.242;2023-04-25T08:26:45;101065.0;;;15.65;42.21
32452;BME280;45528;52.102;5.242;2023-04-25T08:28:21;101070.0;;;15.19;42.86
32452;BME280;45528;52.102;5.242;2023-04-25T08:29:57;101074.0;;;14.89;43.27
32452;BME280;45528;52.102;5.242;2023-04-25T08:33:10;101084.0;;;14.89;43.09
32452;BME280;45528;52.102;5.242;2023-04-25T08:34:46;101081.0;;;14.82;43.05
32452;BME280;45528;52.102;5.242;2023-04-25T08:36:22;101089.0;;;14.85;43.76
32452;BME280;45528;52.102;5.242;2023-04-25T08:39:34;101086.0;;;14.04;43.92
32452;BME280;45528;52.102;5.242;2023-04-25T08:41:11;101092.0;;;13.77;45.79
32452;BME280;45528;52.102;5.242;2023-04-25T08:42:48;101093.0;;;14.08;46.65
32452;BME280;45528;52.102;5.242;2023-04-25T08:46:02;101091.0;;;13.9;45.86
32452;BME280;45528;52.102;5.242;2023-04-25T08:47:38;101091.0;;;14.22;44.9
32452;BME280;45528;52.102;5.242;2023-04-25T08:49:16;101095.0;;;14.05;44.64
32452;BME280;45528;52.102;5.242;2023-04-25T08:50:55;101102.0;;;13.69;43.9
32452;BME280;45528;52.102;5.242;2023-04-25T08:54:14;101100.0;;;13.98;43.62
32452;BME280;45528;52.102;5.242;2023-04-25T08:55:51;101105.0;;;14.09;43.81
32452;BME280;45528;52.102;5.242;2023-04-25T08:57:31;101116.0;;;14.21;43.65
32452;BME280;45528;52.102;5.242;2023-04-25T09:00:43;101114.0;;;14.48;44.01
32452;BME280;45528;52.102;5.242;2023-04-25T09:02:21;101125.0;;;14.86;44.57
32452;BME280;45528;52.102;5.242;2023-04-25T09:03:57;101123.0;;;14.96;44.06
32452;BME280;45528;52.102;5.242;2023-04-25T09:05:34;101118.0;;;15.5;42.5
32452;BME280;45528;52.102;5.242;2023-04-25T09:08:49;101116.0;;;15.75;43.24
32452;BME280;45528;52.102;5.242;2023-04-25T09:10:26;101127.0;;;15.85;41.78
32452;BME280;45528;52.102;5.242;2023-04-25T09:12:03;101128.0;;;15.76;41.45
32452;BME280;45528;52.102;5.242;2023-04-25T09:15:16;101131.0;;;15.81;38.9
32452;BME280;45528;52.102;5.242;2023-04-25T09:17:01;101126.0;;;15.31;37.53
32452;BME280;45528;52.102;5.242;2023-04-25T09:18:37;101124.0;;;15.28;38.92
32452;BME280;45528;52.102;5.242;2023-04-25T09:20:14;101142.0;;;15.91;38.78
32452;BME280;45528;52.102;5.242;2023-04-25T09:23:27;101133.0;;;15.97;38.92
32452;BME280;45528;52.102;5.242;2023-04-25T09:25:08;101133.0;;;15.92;38.72
32452;BME280;45528;52.102;5.242;2023-04-25T09:26:44;101130.0;;;16.23;37.89
32452;BME280;45528;52.102;5.242;2023-04-25T09:30:00;101139.0;;;16.11;36.96
32452;BME280;45528;52.102;5.242;2023-04-25T09:31:36;101130.0;;;16.25;37.89
32452;BME280;45528;52.102;5.242;2023-04-25T09:33:12;101135.0;;;16.03;37.54
32452;BME280;45528;52.102;5.242;2023-04-25T09:34:51;101140.0;;;16.18;37.08
32452;BME280;45528;52.102;5.242;2023-04-25T09:38:08;101139.0;;;16.2;39.18
32452;BME280;45528;52.102;5.242;2023-04-25T09:39:44;101149.0;;;15.68;38.33
32452;BME280;45528;52.102;5.242;2023-04-25T09:41:23;101157.0;;;15.83;39.25
32452;BME280;45528;52.102;5.242;2023-04-25T09:44:35;101162.0;;;15.91;40.43
32452;BME280;45528;52.102;5.242;2023-04-25T09:46:12;101158.0;;;15.41;39.72
32452;BME280;45528;52.102;5.242;2023-04-25T09:47:49;101162.0;;;15.46;39.5
32452;BME280;45528;52.102;5.242;2023-04-25T09:51:04;101172.0;;;15.64;41.21
32452;BME280;45528;52.102;5.242;2023-04-25T09:52:43;101172.0;;;15.27;42.7
32452;BME280;45528;52.102;5.242;2023-04-25T09:54:19;101177.0;;;15.63;42.92
32452;BME280;45528;52.102;5.242;2023-04-25T09:55:55;101181.0;;;15.66;41.86
32452;BME280;45528;52.102;5.242;2023-04-25T09:59:09;101184.0;;;15.31;40.19
32452;BME280;45528;52.102;5.242;2023-04-25T10:00:47;101185.0;;;15.51;40.47
32452;BME280;45528;52.102;5.242;2023-04-25T10:02:25;101183.0;;;15.8;41.54
32452;BME280;45528;52.102;5.242;2023-04-25T10:05:43;101187.0;;;15.67;40.6
32452;BME280;45528;52.102;5.242;2023-04-25T10:07:20;101186.0;;;15.79;41.78
32452;BME280;45528;52.102;5.242;2023-04-25T10:08:58;101190.0;;;15.87;42.1
32452;BME280;45528;52.102;5.242;2023-04-25T10:10:35;101190.0;;;16.27;41.45
32452;BME280;45528;52.102;5.242;2023-04-25T10:13:49;101192.0;;;16.06;41.48
32452;BME280;45528;52.102;5.242;2023-04-25T10:15:26;101194.0;;;16.25;40.56
32452;BME280;45528;52.102;5.242;2023-04-25T10:17:03;101196.0;;;15.78;41.91
32452;BME280;45528;52.102;5.242;2023-04-25T10:20:15;101188.0;;;16.5;41.45
32452;BME280;45528;52.102;5.242;2023-04-25T10:21:54;101193.0;;;16.46;39.64
32452;BME280;45528;52.102;5.242;2023-04-25T10:23:34;101195.0;;;15.88;40.62
32452;BME280;45528;52.102;5.242;2023-04-25T10:25:12;101195.0;;;15.37;41.33
32452;BME280;45528;52.102;5.242;2023-04-25T10:28:26;101195.0;;;15.57;41.26
32452;BME280;45528;52.102;5.242;2023-04-25T10:30:03;101193.0;;;15.79;41.89
32452;BME280;45528;52.102;5.242;2023-04-25T10:31:45;101193.0;;;16.13;41.89
32452;BME280;45528;52.102;5.242;2023-04-25T10:35:12;101191.0;;;16.57;41.98
32452;BME280;45528;52.102;5.242;2023-04-25T10:36:50;101188.0;;;16.45;39.9
32452;BME280;45528;52.102;5.242;2023-04-25T10:38:27;101189.0;;;16.5;39.22
32452;BME280;45528;52.102;5.242;2023-04-25T10:40:08;101191.0;;;16.43;39.65
32452;BME280;45528;52.102;5.242;2023-04-25T10:43:34;101197.0;;;16.11;37.35
32452;BME280;45528;52.102;5.242;2023-04-25T10:45:15;101194.0;;;16.38;38.35
32452;BME280;45528;52.102;5.242;2023-04-25T10:46:51;101200.0;;;16.36;37.89
32452;BME280;45528;52.102;5.242;2023-04-25T10:48:28;101212.0;;;16.34;38.08
32452;BME280;45528;52.102;5.242;2023-04-25T10:51:43;101207.0;;;16.32;36.67
32452;BME280;45528;52.102;5.242;2023-04-25T10:53:24;101200.0;;;16.52;36.76
32452;BME280;45528;52.102;5.242;2023-04-25T10:55:02;101200.0;;;16.45;36.57
32452;BME280;45528;52.102;5.242;2023-04-25T10:56:42;101211.0;;;16.41;36.43
32452;BME280;45528;52.102;5.242;2023-04-25T11:00:00;101210.0;;;16.16;36.36
32452;BME280;45528;52.102;5.242;2023-04-25T11:01:41;101203.0;;;16.98;36.31
32452;BME280;45528;52.102;5.242;2023-04-25T11:03:21;101205.0;;;16.7;35.54
32452;BME280;45528;52.102;5.242;2023-04-25T11:04:58;101194.0;;;16.9;35.1